Terminal Aerodrome Forecast
Issued by NWS

Home | Current Version | Previous Version | Text Only | Print | Product List | Glossary On
Versions: 1 2 3 4 5 6 7 8 9 10 11 12 13 14 15 16 17 18 19 20 21 22
000
FTUS44 KLIX 261432 AAA
TAFMCB
TAF AMD
KMCB 261432Z 2615/2712 17008KT 4SM BR SCT005 OVC010
     FM261530 20004KT P6SM BKN025
     FM261700 20007KT P6SM SCT080
     FM270100 16006KT P6SM BKN100
     FM270500 17005KT P6SM BKN015
     FM271000 17005KT 3SM BR BKN008=

USA.gov is the U.S. government's official web portal to all federal, state and local government web resources and services.